createdAt,value
2018-06-21T00:00:30.771Z,64.67
2018-06-21T00:02:59.159Z,65.24
2018-06-21T00:05:27.442Z,64.90
2018-06-21T00:07:55.669Z,64.40
2018-06-21T00:10:23.704Z,64.21
2018-06-21T00:12:51.781Z,64.71
2018-06-21T00:15:20.040Z,64.53
2018-06-21T00:17:48.072Z,64.37
2018-06-21T00:20:16.409Z,64.11
2018-06-21T00:22:44.660Z,64.56
2018-06-21T00:25:12.951Z,64.31
2018-06-21T00:27:41.343Z,64.20
2018-06-21T00:30:09.732Z,64.33
2018-06-21T00:32:38.141Z,64.40
2018-06-21T00:35:06.535Z,64.45
2018-06-21T00:37:35.215Z,64.16
2018-06-21T00:40:04.335Z,64.17
2018-06-21T00:42:33.100Z,64.10
2018-06-21T00:45:01.953Z,64.25
2018-06-21T00:47:30.327Z,64.36
2018-06-21T00:49:58.515Z,64.41
2018-06-21T00:52:26.603Z,64.57
2018-06-21T00:54:54.656Z,64.39
2018-06-21T00:57:22.704Z,64.39
2018-06-21T00:59:50.764Z,64.60
2018-06-21T01:02:18.817Z,64.94
2018-06-21T01:04:46.843Z,64.62
2018-06-21T01:07:14.873Z,64.94
2018-06-21T01:09:42.916Z,65.46
2018-06-21T01:12:10.972Z,65.01
2018-06-21T01:14:39.008Z,65.43
2018-06-21T01:17:07.049Z,65.55
2018-06-21T01:19:35.103Z,65.35
2018-06-21T01:22:03.138Z,65.59
2018-06-21T01:24:31.244Z,66.11
2018-06-21T01:26:59.304Z,66.77
2018-06-21T01:29:27.367Z,65.60
2018-06-21T01:31:55.475Z,65.47
2018-06-21T01:34:23.554Z,66.07
2018-06-21T01:36:51.619Z,66.06
2018-06-21T01:39:19.687Z,65.74
2018-06-21T01:41:48.008Z,65.45
2018-06-21T01:44:16.053Z,65.25
2018-06-21T01:46:44.091Z,64.71
2018-06-21T01:49:12.165Z,64.94
2018-06-21T01:51:40.345Z,64.86
2018-06-21T01:54:08.643Z,65.55
2018-06-21T01:56:36.974Z,65.41
2018-06-21T01:59:05.627Z,65.94
2018-06-21T02:01:33.961Z,66.02
2018-06-21T02:04:02.333Z,66.33
2018-06-21T02:06:30.428Z,66.27
2018-06-21T02:08:58.487Z,67.02
2018-06-21T02:11:26.567Z,66.79
2018-06-21T02:13:54.615Z,66.87
2018-06-21T02:16:22.696Z,67.60
2018-06-21T02:18:50.759Z,67.58
2018-06-21T02:21:18.927Z,68.20
2018-06-21T02:23:46.980Z,68.10
2018-06-21T02:26:15.080Z,68.17
2018-06-21T02:28:43.208Z,67.63
2018-06-21T02:31:11.483Z,67.78
2018-06-21T02:33:39.924Z,67.17
2018-06-21T02:36:08.367Z,67.78
2018-06-21T02:38:36.723Z,68.00
2018-06-21T02:41:05.200Z,68.02
2018-06-21T02:43:33.410Z,68.47
2018-06-21T02:46:02.011Z,68.65
2018-06-21T02:48:30.112Z,68.64
2018-06-21T02:50:58.169Z,68.30
2018-06-21T02:53:26.260Z,68.19
2018-06-21T02:55:54.302Z,68.38
2018-06-21T02:58:22.347Z,68.46
2018-06-21T03:00:50.388Z,68.56
2018-06-21T03:03:18.447Z,68.50
2018-06-21T03:05:46.488Z,68.65
2018-06-21T03:08:14.664Z,69.00
2018-06-21T03:10:42.691Z,69.63
2018-06-21T03:13:10.731Z,69.73
2018-06-21T03:15:38.786Z,69.38
2018-06-21T03:18:06.843Z,69.29
2018-06-21T03:20:34.883Z,69.69
2018-06-21T03:23:02.955Z,69.08
2018-06-21T03:25:31.032Z,68.50
2018-06-21T03:27:59.272Z,69.14
2018-06-21T03:30:27.388Z,69.64
2018-06-21T03:32:55.429Z,69.23
2018-06-21T03:35:23.482Z,69.69
2018-06-21T03:37:51.551Z,68.77
2018-06-21T03:40:19.614Z,69.46
2018-06-21T03:42:47.671Z,68.92
2018-06-21T03:45:15.735Z,69.23
2018-06-21T03:47:43.824Z,68.64
2018-06-21T03:50:11.879Z,68.40
2018-06-21T03:52:39.917Z,68.28
2018-06-21T03:55:07.975Z,68.42
2018-06-21T03:57:36.003Z,68.26
2018-06-21T04:00:04.075Z,67.72
2018-06-21T04:02:32.107Z,67.94
2018-06-21T04:05:00.194Z,68.29
2018-06-21T04:07:28.236Z,68.24
2018-06-21T04:09:56.288Z,68.49
2018-06-21T04:12:24.331Z,68.10
2018-06-21T04:14:52.403Z,68.04
2018-06-21T04:17:20.436Z,67.40
2018-06-21T04:19:48.788Z,67.49
2018-06-21T04:22:16.847Z,67.27
2018-06-21T04:24:44.895Z,66.76
2018-06-21T04:27:13.018Z,65.00
2018-06-21T04:29:41.064Z,63.97
2018-06-21T04:32:09.220Z,63.62
2018-06-21T04:34:37.269Z,64.23
2018-06-21T04:37:05.344Z,64.50
2018-06-21T04:39:33.388Z,65.03
2018-06-21T04:42:01.444Z,64.68
2018-06-21T04:44:29.480Z,64.98
2018-06-21T04:46:57.535Z,65.47
2018-06-21T04:49:25.574Z,65.49
2018-06-21T04:51:53.690Z,64.73
2018-06-21T04:54:21.734Z,64.77
2018-06-21T04:56:49.992Z,64.63
2018-06-21T04:59:18.026Z,63.94
2018-06-21T05:01:46.091Z,63.55
2018-06-21T05:04:14.207Z,63.50
2018-06-21T05:06:42.259Z,63.37
2018-06-21T05:09:11.908Z,63.08
2018-06-21T05:11:39.960Z,62.81
2018-06-21T05:14:08.487Z,63.60
2018-06-21T05:16:36.515Z,63.88
2018-06-21T05:19:04.568Z,64.26
2018-06-21T05:21:32.929Z,64.76
2018-06-21T05:24:00.980Z,65.16
2018-06-21T05:26:29.106Z,65.79
2018-06-21T05:28:57.202Z,65.42
2018-06-21T05:31:25.226Z,65.93
2018-06-21T05:33:53.271Z,66.31
2018-06-21T05:36:21.451Z,65.92
2018-06-21T05:38:49.535Z,66.65
2018-06-21T05:41:17.574Z,66.81
2018-06-21T05:43:45.639Z,67.25
2018-06-21T05:46:13.668Z,67.19
2018-06-21T05:48:41.707Z,66.71
2018-06-21T05:51:09.739Z,67.17
2018-06-21T05:53:37.755Z,67.17
2018-06-21T05:56:05.843Z,67.25
2018-06-21T05:58:33.872Z,68.49
2018-06-21T06:01:01.930Z,68.25
2018-06-21T06:03:30.052Z,69.24
2018-06-21T06:05:58.096Z,69.67
2018-06-21T06:08:26.188Z,70.38
2018-06-21T06:10:54.320Z,70.60
2018-06-21T06:13:22.354Z,70.86
2018-06-21T06:15:50.412Z,71.22
2018-06-21T06:18:18.439Z,72.51
2018-06-21T06:20:46.456Z,73.94
2018-06-21T06:23:14.508Z,76.01
2018-06-21T06:25:42.732Z,76.51
2018-06-21T06:28:10.756Z,78.22
2018-06-21T06:30:38.794Z,78.25
2018-06-21T06:33:06.883Z,79.58
2018-06-21T06:35:34.875Z,81.03
2018-06-21T06:38:03.140Z,82.35
2018-06-21T06:40:31.234Z,81.15
2018-06-21T06:42:59.346Z,81.41
2018-06-21T06:45:27.432Z,82.32
2018-06-21T06:47:55.451Z,81.89
2018-06-21T06:50:23.715Z,82.89
2018-06-21T06:52:51.759Z,83.08
2018-06-21T06:55:19.803Z,82.04
2018-06-21T06:57:47.859Z,81.42
2018-06-21T07:00:15.916Z,81.00
2018-06-21T07:02:44.043Z,81.56
2018-06-21T07:05:12.071Z,81.49
2018-06-21T07:07:40.115Z,82.00
2018-06-21T07:10:08.180Z,81.34
2018-06-21T07:12:36.213Z,81.16
2018-06-21T07:15:04.244Z,81.98
2018-06-21T07:17:32.308Z,82.44
2018-06-21T07:20:00.336Z,82.49
2018-06-21T07:22:28.511Z,83.53
2018-06-21T07:24:56.539Z,84.30
2018-06-21T07:27:24.631Z,83.99
2018-06-21T07:29:52.706Z,84.54
2018-06-21T07:32:20.675Z,84.82
2018-06-21T07:34:48.716Z,85.43
2018-06-21T07:37:16.757Z,85.62
2018-06-21T07:39:44.848Z,85.60
2018-06-21T07:42:12.891Z,86.15
2018-06-21T07:44:40.924Z,86.00
2018-06-21T07:47:08.971Z,86.67
2018-06-21T07:49:37.020Z,86.77
2018-06-21T07:52:05.048Z,87.16
2018-06-21T07:54:33.222Z,87.96
2018-06-21T07:57:01.255Z,87.95
2018-06-21T07:59:29.320Z,87.77
2018-06-21T08:01:57.460Z,88.38
2018-06-21T08:04:25.553Z,87.56
2018-06-21T08:06:53.588Z,85.51
2018-06-21T08:09:21.636Z,85.31
2018-06-21T08:11:49.703Z,85.16
2018-06-21T08:14:17.811Z,84.89
2018-06-21T08:16:45.861Z,85.47
2018-06-21T08:19:14.012Z,85.94
2018-06-21T08:21:42.047Z,86.67
2018-06-21T08:24:10.357Z,86.02
2018-06-21T08:26:38.479Z,83.64
2018-06-21T08:29:06.560Z,82.02
2018-06-21T08:31:34.629Z,80.40
2018-06-21T08:34:02.818Z,79.15
2018-06-21T08:36:30.936Z,78.20
2018-06-21T08:38:59.022Z,76.79
2018-06-21T08:41:31.777Z,76.29
2018-06-21T08:43:59.807Z,76.98
2018-06-21T08:46:27.976Z,75.75
2018-06-21T08:48:56.129Z,74.91
2018-06-21T08:51:24.175Z,73.50
2018-06-21T08:53:52.231Z,74.02
2018-06-21T08:56:20.272Z,72.12
2018-06-21T08:58:48.595Z,71.24
2018-06-21T09:01:16.651Z,71.08
2018-06-21T09:03:44.706Z,72.36
2018-06-21T09:06:12.816Z,70.06
2018-06-21T09:08:40.899Z,66.70
2018-06-21T09:11:08.995Z,66.42
2018-06-21T09:13:38.011Z,66.34
2018-06-21T09:16:07.811Z,65.45
2018-06-21T09:18:35.879Z,65.16
2018-06-21T09:21:03.970Z,65.83
2018-06-21T09:23:32.079Z,62.92
2018-06-21T09:26:00.112Z,63.23
2018-06-21T09:28:28.186Z,62.63
2018-06-21T09:30:56.290Z,64.17
2018-06-21T09:33:24.350Z,62.26
2018-06-21T09:35:52.464Z,61.79
2018-06-21T09:38:26.012Z,59.83
2018-06-21T09:40:59.387Z,57.42
2018-06-21T09:43:32.745Z,56.46
2018-06-21T09:46:06.151Z,53.51
2018-06-21T09:48:34.706Z,52.45
2018-06-21T09:51:02.930Z,49.36
2018-06-21T09:53:31.121Z,50.22
2018-06-21T09:56:00.343Z,49.65
2018-06-21T09:58:28.704Z,51.05
2018-06-21T10:01:01.699Z,51.59
2018-06-21T10:03:29.752Z,52.42
2018-06-21T10:05:58.095Z,52.80
2018-06-21T10:08:26.263Z,52.69
2018-06-21T10:10:54.295Z,53.86
2018-06-21T10:13:22.539Z,54.09
2018-06-21T10:15:50.590Z,55.09
2018-06-21T10:18:18.596Z,59.46
2018-06-21T10:20:46.643Z,64.71
2018-06-21T10:23:15.001Z,65.51
2018-06-21T10:25:43.045Z,65.13
2018-06-21T10:28:11.155Z,67.57
2018-06-21T10:30:39.702Z,69.82
2018-06-21T10:33:07.831Z,71.03
2018-06-21T10:35:36.034Z,69.26
2018-06-21T10:38:04.504Z,71.35
2018-06-21T10:40:33.083Z,69.72
2018-06-21T10:43:01.342Z,68.06
2018-06-21T10:45:29.395Z,69.00
2018-06-21T10:47:58.292Z,69.07
2018-06-21T10:50:26.396Z,68.72
2018-06-21T10:52:54.443Z,65.00
2018-06-21T10:55:22.546Z,62.77
2018-06-21T10:57:50.595Z,63.62
2018-06-21T11:00:18.677Z,61.42
2018-06-21T11:02:46.776Z,61.92
2018-06-21T11:05:14.828Z,57.23
2018-06-21T11:07:45.910Z,53.80
2018-06-21T11:10:13.991Z,53.78
2018-06-21T11:12:42.047Z,54.92
2018-06-21T11:15:10.080Z,55.22
2018-06-21T11:17:38.120Z,52.54
2018-06-21T11:20:06.391Z,52.90
2018-06-21T11:22:34.463Z,50.56
2018-06-21T11:25:02.532Z,49.03
2018-06-21T11:27:30.585Z,49.11
2018-06-21T11:29:58.623Z,48.48
2018-06-21T11:32:26.679Z,47.66
2018-06-21T11:34:54.719Z,45.05
2018-06-21T11:37:22.779Z,45.58
2018-06-21T11:39:50.831Z,45.31
2018-06-21T11:42:18.916Z,44.45
2018-06-21T11:44:46.967Z,42.66
2018-06-21T11:47:15.119Z,42.49
2018-06-21T11:49:43.376Z,41.77
2018-06-21T11:52:11.719Z,42.85
2018-06-21T11:54:40.163Z,41.63
2018-06-21T11:57:08.489Z,40.91
2018-06-21T11:59:36.977Z,41.34
2018-06-21T12:02:05.784Z,41.75
2018-06-21T12:04:34.299Z,41.74
2018-06-21T12:07:03.435Z,42.34
2018-06-21T12:09:31.579Z,42.31
2018-06-21T12:11:59.644Z,41.84
2018-06-21T12:14:27.700Z,42.10
2018-06-21T12:16:55.776Z,40.65
2018-06-21T12:19:23.847Z,41.13
2018-06-21T12:21:51.900Z,40.16
2018-06-21T12:24:19.971Z,38.68
2018-06-21T12:26:48.059Z,38.96
2018-06-21T12:29:16.189Z,39.81
2018-06-21T12:31:44.415Z,40.08
2018-06-21T12:34:12.631Z,39.57
2018-06-21T12:36:40.925Z,40.93
2018-06-21T12:39:09.588Z,42.33
2018-06-21T12:41:38.236Z,40.84
2018-06-21T12:44:07.040Z,39.83
2018-06-21T12:46:35.819Z,36.62
2018-06-21T12:49:04.050Z,36.55
2018-06-21T12:51:32.331Z,36.82
2018-06-21T12:54:00.406Z,36.55
2018-06-21T12:56:28.487Z,36.13
2018-06-21T12:58:56.526Z,35.19
2018-06-21T13:01:24.607Z,35.95
2018-06-21T13:03:52.646Z,35.37
2018-06-21T13:06:20.707Z,35.22
2018-06-21T13:09:00.228Z,33.14
2018-06-21T13:11:39.727Z,33.09
2018-06-21T13:14:19.489Z,33.25
2018-06-21T13:16:47.535Z,33.57
2018-06-21T13:19:15.579Z,33.01
2018-06-21T13:21:43.624Z,33.25
2018-06-21T13:24:11.673Z,33.07
2018-06-21T13:26:39.703Z,33.77
2018-06-21T13:29:07.766Z,35.75
2018-06-21T13:31:35.941Z,35.38
2018-06-21T13:34:04.101Z,35.36
2018-06-21T13:36:32.627Z,36.68
2018-06-21T13:39:01.494Z,36.29
2018-06-21T13:41:29.595Z,37.48
2018-06-21T13:43:57.634Z,38.10
2018-06-21T13:46:25.691Z,38.74
2018-06-21T13:48:53.864Z,36.75
2018-06-21T13:51:21.920Z,34.62
2018-06-21T13:53:49.943Z,35.21
2018-06-21T13:56:18.004Z,35.34
2018-06-21T13:58:46.087Z,36.03
2018-06-21T14:01:14.211Z,37.36
2018-06-21T14:03:42.402Z,37.02
2018-06-21T14:06:10.625Z,38.26
2018-06-21T14:08:38.980Z,35.57
2018-06-21T14:11:07.036Z,36.99
2018-06-21T14:13:35.417Z,36.76
2018-06-21T14:16:03.770Z,37.10
2018-06-21T14:18:32.558Z,36.68
2018-06-21T14:21:00.852Z,36.60
2018-06-21T14:23:29.152Z,37.35
2018-06-21T14:25:57.231Z,38.26
2018-06-21T14:28:25.240Z,38.16
2018-06-21T14:30:53.256Z,37.84
2018-06-21T14:33:21.292Z,37.12
2018-06-21T14:35:49.310Z,36.81
2018-06-21T14:38:17.376Z,37.53
2018-06-21T14:40:45.398Z,37.40
2018-06-21T14:43:13.440Z,37.19
2018-06-21T14:45:41.475Z,38.32
2018-06-21T14:48:09.564Z,37.69
2018-06-21T14:50:37.543Z,37.23
2018-06-21T14:53:05.687Z,37.79
2018-06-21T14:55:33.951Z,38.35
2018-06-21T14:58:02.236Z,39.42
2018-06-21T15:00:30.266Z,39.87
2018-06-21T15:02:58.338Z,40.82
2018-06-21T15:05:26.440Z,42.65
2018-06-21T15:07:54.456Z,44.12
2018-06-21T15:10:22.568Z,45.25
2018-06-21T15:12:50.604Z,45.00
2018-06-21T15:15:18.692Z,44.25
2018-06-21T15:17:46.753Z,43.64
2018-06-21T15:20:14.808Z,43.47
2018-06-21T15:22:42.835Z,43.45
2018-06-21T15:25:10.875Z,42.99
2018-06-21T15:27:38.903Z,41.88
2018-06-21T15:30:06.936Z,42.09
2018-06-21T15:32:34.982Z,42.78
2018-06-21T15:35:03.054Z,41.36
2018-06-21T15:37:31.100Z,42.43
2018-06-21T15:39:59.211Z,42.50
2018-06-21T15:42:27.249Z,43.14
2018-06-21T15:44:55.297Z,44.00
2018-06-21T15:47:23.376Z,45.35
2018-06-21T15:49:51.413Z,48.92
2018-06-21T15:52:19.671Z,50.51
2018-06-21T15:54:49.414Z,52.81
2018-06-21T15:57:19.623Z,54.05
2018-06-21T15:59:48.760Z,53.85
2018-06-21T16:02:17.739Z,54.31
2018-06-21T16:04:46.803Z,54.19
2018-06-21T16:07:15.744Z,53.83
2018-06-21T16:09:44.758Z,52.98
2018-06-21T16:12:14.311Z,52.29
2018-06-21T16:14:43.403Z,50.40
2018-06-21T16:17:11.632Z,50.51
2018-06-21T16:19:39.900Z,49.87
2018-06-21T16:22:08.216Z,49.18
2018-06-21T16:24:36.490Z,49.36
2018-06-21T16:27:05.100Z,50.56
2018-06-21T16:29:34.539Z,49.98
2018-06-21T16:32:02.759Z,50.72
2018-06-21T16:34:31.096Z,50.92
2018-06-21T16:36:59.227Z,50.60
2018-06-21T16:39:27.375Z,51.21
2018-06-21T16:41:55.447Z,51.53
2018-06-21T16:44:23.523Z,51.62
2018-06-21T16:46:51.627Z,51.79
2018-06-21T16:49:19.710Z,52.09
2018-06-21T16:51:47.760Z,52.70
2018-06-21T16:54:15.802Z,52.26
2018-06-21T16:56:44.071Z,52.11
2018-06-21T16:59:12.136Z,52.85
2018-06-21T17:01:40.265Z,52.34
2018-06-21T17:04:08.281Z,52.34
2018-06-21T17:06:36.323Z,52.65
2018-06-21T17:09:06.252Z,52.25
2018-06-21T17:11:34.309Z,51.72
2018-06-21T17:14:02.327Z,51.00
2018-06-21T17:16:30.403Z,50.44
2018-06-21T17:18:58.446Z,50.52
2018-06-21T17:21:26.485Z,50.61
2018-06-21T17:23:55.351Z,50.29
2018-06-21T17:26:23.493Z,51.18
2018-06-21T17:28:51.534Z,50.26
2018-06-21T17:31:19.571Z,50.38
2018-06-21T17:33:47.763Z,53.15
2018-06-21T17:36:15.891Z,63.09
2018-06-21T17:38:44.419Z,63.11
2018-06-21T17:41:13.267Z,64.40
2018-06-21T17:43:41.566Z,66.19
2018-06-21T17:46:10.008Z,70.39
2018-06-21T17:48:38.318Z,67.33
2018-06-21T17:51:06.384Z,68.94
2018-06-21T17:53:34.423Z,70.72
2018-06-21T17:56:02.479Z,68.30
2018-06-21T17:58:30.630Z,69.67
2018-06-21T18:00:58.691Z,68.95
2018-06-21T18:03:26.732Z,67.71
2018-06-21T18:05:54.798Z,67.75
2018-06-21T18:08:22.852Z,69.35
2018-06-21T18:10:50.979Z,68.72
2018-06-21T18:13:18.972Z,68.01
2018-06-21T18:15:47.127Z,68.61
2018-06-21T18:18:15.172Z,66.66
2018-06-21T18:20:43.624Z,68.13
2018-06-21T18:23:11.683Z,68.30
2018-06-21T18:25:40.703Z,69.08
2018-06-21T18:28:09.078Z,67.72
2018-06-21T18:30:37.143Z,68.27
2018-06-21T18:33:05.235Z,67.11
2018-06-21T18:35:33.363Z,67.57
2018-06-21T18:38:01.351Z,67.03
2018-06-21T18:40:29.851Z,67.71
2018-06-21T18:42:57.939Z,67.38
2018-06-21T18:45:25.992Z,66.77
2018-06-21T18:47:54.599Z,67.28
2018-06-21T18:50:24.517Z,67.13
2018-06-21T18:52:53.291Z,67.23
2018-06-21T18:55:21.988Z,66.85
2018-06-21T18:57:50.057Z,65.43
2018-06-21T19:00:18.198Z,65.31
2018-06-21T19:02:47.183Z,65.25
2018-06-21T19:05:15.599Z,65.92
2018-06-21T19:07:43.647Z,65.95
2018-06-21T19:10:17.150Z,65.20
2018-06-21T19:12:45.235Z,66.15
2018-06-21T19:15:13.304Z,65.91
2018-06-21T19:17:41.382Z,65.35
2018-06-21T19:20:09.903Z,64.74
2018-06-21T19:22:37.967Z,65.91
2018-06-21T19:25:06.055Z,65.18
2018-06-21T19:27:37.151Z,65.55
2018-06-21T19:30:05.595Z,65.99
2018-06-21T19:32:33.671Z,65.51
2018-06-21T19:35:01.736Z,66.09
2018-06-21T19:37:29.782Z,66.25
2018-06-21T19:39:57.855Z,66.59
2018-06-21T19:42:25.920Z,65.27
2018-06-21T19:44:54.052Z,64.30
2018-06-21T19:47:22.175Z,63.94
2018-06-21T19:49:50.367Z,64.74
2018-06-21T19:52:18.443Z,64.75
2018-06-21T19:54:46.521Z,64.51
2018-06-21T19:57:14.601Z,64.80
2018-06-21T19:59:42.931Z,64.19
2018-06-21T20:02:11.517Z,63.65
2018-06-21T20:04:39.620Z,63.55
2018-06-21T20:07:08.686Z,63.04
2018-06-21T20:09:37.741Z,63.76
2018-06-21T20:12:05.987Z,63.38
2018-06-21T20:14:34.068Z,63.47
2018-06-21T20:17:02.167Z,63.70
2018-06-21T20:19:34.471Z,63.51
2018-06-21T20:22:02.524Z,62.89
2018-06-21T20:24:30.583Z,63.05
2018-06-21T20:26:58.671Z,63.67
2018-06-21T20:29:26.843Z,64.14
2018-06-21T20:31:54.931Z,63.76
2018-06-21T20:34:23.789Z,63.88
2018-06-21T20:36:51.919Z,64.42
2018-06-21T20:39:19.987Z,64.08
2018-06-21T20:41:48.061Z,64.17
2018-06-21T20:44:16.185Z,64.50
2018-06-21T20:46:44.352Z,65.58
2018-06-21T20:49:12.856Z,65.92
2018-06-21T20:51:41.049Z,65.38
2018-06-21T20:54:09.220Z,65.48
2018-06-21T20:56:37.533Z,66.00
2018-06-21T20:59:06.439Z,66.24
2018-06-21T21:01:34.777Z,66.46
2018-06-21T21:04:03.109Z,66.70
2018-06-21T21:06:31.432Z,67.00
2018-06-21T21:08:59.700Z,67.10
2018-06-21T21:11:27.807Z,67.85
2018-06-21T21:13:55.886Z,68.02
2018-06-21T21:16:23.968Z,68.33
2018-06-21T21:18:52.070Z,68.58
2018-06-21T21:21:20.103Z,68.55
2018-06-21T21:23:48.349Z,69.84
2018-06-21T21:26:16.393Z,69.64
2018-06-21T21:28:44.526Z,69.17
2018-06-21T21:31:12.599Z,69.76
2018-06-21T21:33:40.743Z,69.38
2018-06-21T21:36:08.803Z,69.85
2018-06-21T21:38:36.955Z,69.85
2018-06-21T21:41:04.999Z,69.79
2018-06-21T21:43:33.861Z,69.68
2018-06-21T21:46:01.931Z,69.96
2018-06-21T21:48:29.993Z,70.30
2018-06-21T21:50:58.038Z,70.30
2018-06-21T21:53:26.092Z,70.07
2018-06-21T21:55:54.131Z,70.91
2018-06-21T21:58:22.248Z,70.52
2018-06-21T22:00:52.506Z,70.52
2018-06-21T22:03:20.584Z,70.87
2018-06-21T22:05:48.634Z,70.96
2018-06-21T22:08:16.687Z,70.92
2018-06-21T22:10:45.659Z,70.96
2018-06-21T22:13:14.152Z,70.96
2018-06-21T22:15:42.777Z,70.75
2018-06-21T22:18:10.998Z,70.19
2018-06-21T22:20:39.460Z,70.04
2018-06-21T22:23:07.608Z,70.43
2018-06-21T22:25:35.736Z,70.21
2018-06-21T22:28:03.899Z,70.23
2018-06-21T22:30:31.946Z,70.01
2018-06-21T22:33:00.556Z,70.40
2018-06-21T22:35:28.924Z,69.97
2018-06-21T22:37:56.979Z,70.15
2018-06-21T22:40:25.027Z,71.08
2018-06-21T22:42:53.063Z,70.13
2018-06-21T22:45:21.088Z,70.78
2018-06-21T22:47:49.127Z,70.74
2018-06-21T22:50:17.151Z,70.99
2018-06-21T22:52:45.221Z,70.97
2018-06-21T22:55:13.234Z,70.72
2018-06-21T22:57:41.282Z,71.09
2018-06-21T23:00:09.313Z,71.44
2018-06-21T23:02:37.352Z,71.49
2018-06-21T23:05:05.413Z,71.24
2018-06-21T23:07:33.412Z,70.84
2018-06-21T23:10:01.434Z,71.17
2018-06-21T23:12:29.623Z,71.64
2018-06-21T23:14:57.644Z,71.39
2018-06-21T23:17:25.672Z,72.09
2018-06-21T23:19:53.718Z,72.18
2018-06-21T23:22:21.740Z,72.28
2018-06-21T23:24:49.767Z,72.03
2018-06-21T23:27:17.867Z,71.72
2018-06-21T23:29:45.888Z,72.19
2018-06-21T23:32:13.925Z,71.97
2018-06-21T23:34:41.975Z,72.78
2018-06-21T23:37:09.988Z,73.48
2018-06-21T23:39:38.019Z,73.85
2018-06-21T23:42:06.066Z,73.11
2018-06-21T23:44:34.091Z,73.91
2018-06-21T23:47:02.147Z,74.42
2018-06-21T23:49:30.183Z,74.63
2018-06-21T23:51:58.187Z,75.04
2018-06-21T23:54:26.513Z,75.77
2018-06-21T23:56:54.560Z,75.72
2018-06-21T23:59:22.589Z,75.46
